sensor_id;sensor_type;location;lat;lon;timestamp;P1;durP1;ratioP1;P2;durP2;ratioP2
4555;SDS011;2290;48.674;9.018;2024-02-26T00:00:32;4.53;;;2.60;;
4555;SDS011;2290;48.674;9.018;2024-02-26T00:02:59;3.63;;;2.30;;
4555;SDS011;2290;48.674;9.018;2024-02-26T00:05:25;3.27;;;2.23;;
4555;SDS011;2290;48.674;9.018;2024-02-26T00:07:51;4.10;;;2.00;;
4555;SDS011;2290;48.674;9.018;2024-02-26T00:10:16;3.40;;;2.23;;
4555;SDS011;2290;48.674;9.018;2024-02-26T00:12:42;3.67;;;2.47;;
4555;SDS011;2290;48.674;9.018;2024-02-26T00:15:08;2.33;;;1.90;;
4555;SDS011;2290;48.674;9.018;2024-02-26T00:17:34;3.00;;;2.10;;
4555;SDS011;2290;48.674;9.018;2024-02-26T00:20:01;3.67;;;1.90;;
4555;SDS011;2290;48.674;9.018;2024-02-26T00:22:29;2.43;;;2.23;;
4555;SDS011;2290;48.674;9.018;2024-02-26T00:24:55;2.03;;;1.93;;
4555;SDS011;2290;48.674;9.018;2024-02-26T00:27:21;3.83;;;2.00;;
4555;SDS011;2290;48.674;9.018;2024-02-26T00:29:46;2.90;;;2.07;;
4555;SDS011;2290;48.674;9.018;2024-02-26T00:32:12;2.13;;;1.80;;
4555;SDS011;2290;48.674;9.018;2024-02-26T00:34:37;2.20;;;1.93;;
4555;SDS011;2290;48.674;9.018;2024-02-26T00:37:04;2.97;;;2.00;;
4555;SDS011;2290;48.674;9.018;2024-02-26T00:39:29;2.50;;;1.97;;
4555;SDS011;2290;48.674;9.018;2024-02-26T00:41:55;2.70;;;1.87;;
4555;SDS011;2290;48.674;9.018;2024-02-26T00:44:21;3.53;;;2.40;;
4555;SDS011;2290;48.674;9.018;2024-02-26T00:46:48;2.20;;;1.93;;
4555;SDS011;2290;48.674;9.018;2024-02-26T00:49:14;2.80;;;1.80;;
4555;SDS011;2290;48.674;9.018;2024-02-26T00:51:40;2.90;;;1.70;;
4555;SDS011;2290;48.674;9.018;2024-02-26T00:54:07;3.53;;;2.10;;
4555;SDS011;2290;48.674;9.018;2024-02-26T00:56:32;2.63;;;1.70;;
4555;SDS011;2290;48.674;9.018;2024-02-26T00:58:58;2.33;;;1.60;;
4555;SDS011;2290;48.674;9.018;2024-02-26T01:01:24;2.50;;;2.00;;
4555;SDS011;2290;48.674;9.018;2024-02-26T01:03:49;3.80;;;1.90;;
4555;SDS011;2290;48.674;9.018;2024-02-26T01:06:15;2.77;;;1.80;;
4555;SDS011;2290;48.674;9.018;2024-02-26T01:08:42;2.63;;;1.97;;
4555;SDS011;2290;48.674;9.018;2024-02-26T01:11:08;1.80;;;1.60;;
4555;SDS011;2290;48.674;9.018;2024-02-26T01:13:33;1.90;;;1.70;;
4555;SDS011;2290;48.674;9.018;2024-02-26T01:15:59;1.80;;;1.60;;
4555;SDS011;2290;48.674;9.018;2024-02-26T01:18:25;2.13;;;1.57;;
4555;SDS011;2290;48.674;9.018;2024-02-26T01:20:51;1.40;;;1.30;;
4555;SDS011;2290;48.674;9.018;2024-02-26T01:23:19;1.67;;;1.30;;
4555;SDS011;2290;48.674;9.018;2024-02-26T01:25:46;1.87;;;1.60;;
4555;SDS011;2290;48.674;9.018;2024-02-26T01:28:12;1.57;;;1.30;;
4555;SDS011;2290;48.674;9.018;2024-02-26T01:30:37;1.57;;;1.40;;
4555;SDS011;2290;48.674;9.018;2024-02-26T01:33:03;2.10;;;1.50;;
4555;SDS011;2290;48.674;9.018;2024-02-26T01:35:30;2.33;;;1.33;;
4555;SDS011;2290;48.674;9.018;2024-02-26T01:37:55;2.10;;;1.30;;
4555;SDS011;2290;48.674;9.018;2024-02-26T01:40:26;4.00;;;1.43;;
4555;SDS011;2290;48.674;9.018;2024-02-26T01:42:52;2.20;;;1.30;;
4555;SDS011;2290;48.674;9.018;2024-02-26T01:45:17;5.13;;;1.37;;
4555;SDS011;2290;48.674;9.018;2024-02-26T01:47:50;1.40;;;1.10;;
4555;SDS011;2290;48.674;9.018;2024-02-26T01:50:16;1.40;;;1.30;;
4555;SDS011;2290;48.674;9.018;2024-02-26T01:52:47;1.20;;;1.10;;
4555;SDS011;2290;48.674;9.018;2024-02-26T01:55:15;5.07;;;1.40;;
4555;SDS011;2290;48.674;9.018;2024-02-26T01:57:47;2.23;;;1.30;;
4555;SDS011;2290;48.674;9.018;2024-02-26T02:00:16;1.70;;;1.60;;
4555;SDS011;2290;48.674;9.018;2024-02-26T02:02:44;1.83;;;1.43;;
4555;SDS011;2290;48.674;9.018;2024-02-26T02:05:11;1.63;;;1.30;;
4555;SDS011;2290;48.674;9.018;2024-02-26T02:07:39;1.53;;;1.00;;
4555;SDS011;2290;48.674;9.018;2024-02-26T02:10:06;1.00;;;0.80;;
4555;SDS011;2290;48.674;9.018;2024-02-26T02:12:32;1.40;;;0.90;;
4555;SDS011;2290;48.674;9.018;2024-02-26T02:14:59;0.97;;;0.83;;
4555;SDS011;2290;48.674;9.018;2024-02-26T02:17:25;1.47;;;0.90;;
4555;SDS011;2290;48.674;9.018;2024-02-26T02:19:52;1.00;;;0.80;;
4555;SDS011;2290;48.674;9.018;2024-02-26T02:22:18;2.70;;;1.00;;
4555;SDS011;2290;48.674;9.018;2024-02-26T02:24:44;1.00;;;0.90;;
4555;SDS011;2290;48.674;9.018;2024-02-26T02:27:11;1.17;;;0.90;;
4555;SDS011;2290;48.674;9.018;2024-02-26T02:29:37;1.20;;;1.00;;
4555;SDS011;2290;48.674;9.018;2024-02-26T02:32:03;1.00;;;0.90;;
4555;SDS011;2290;48.674;9.018;2024-02-26T02:34:31;1.30;;;0.90;;
4555;SDS011;2290;48.674;9.018;2024-02-26T02:36:58;1.17;;;1.00;;
4555;SDS011;2290;48.674;9.018;2024-02-26T02:39:24;1.40;;;1.00;;
4555;SDS011;2290;48.674;9.018;2024-02-26T02:41:49;1.10;;;1.00;;
4555;SDS011;2290;48.674;9.018;2024-02-26T02:44:15;1.00;;;0.90;;
4555;SDS011;2290;48.674;9.018;2024-02-26T02:46:42;1.30;;;1.20;;
4555;SDS011;2290;48.674;9.018;2024-02-26T02:49:08;1.13;;;1.00;;
4555;SDS011;2290;48.674;9.018;2024-02-26T02:51:35;1.20;;;1.10;;
4555;SDS011;2290;48.674;9.018;2024-02-26T02:54:01;1.10;;;1.00;;
4555;SDS011;2290;48.674;9.018;2024-02-26T02:56:27;1.10;;;1.00;;
4555;SDS011;2290;48.674;9.018;2024-02-26T02:58:53;1.30;;;1.00;;
4555;SDS011;2290;48.674;9.018;2024-02-26T03:01:18;1.00;;;0.90;;
4555;SDS011;2290;48.674;9.018;2024-02-26T03:03:44;1.00;;;0.90;;
4555;SDS011;2290;48.674;9.018;2024-02-26T03:06:10;1.20;;;0.80;;
4555;SDS011;2290;48.674;9.018;2024-02-26T03:08:35;0.93;;;0.80;;
4555;SDS011;2290;48.674;9.018;2024-02-26T03:11:04;1.33;;;1.10;;
4555;SDS011;2290;48.674;9.018;2024-02-26T03:13:30;1.13;;;1.03;;
4555;SDS011;2290;48.674;9.018;2024-02-26T03:15:56;0.80;;;0.80;;
4555;SDS011;2290;48.674;9.018;2024-02-26T03:18:22;1.20;;;0.87;;
4555;SDS011;2290;48.674;9.018;2024-02-26T03:20:48;1.00;;;0.90;;
4555;SDS011;2290;48.674;9.018;2024-02-26T03:23:14;1.07;;;0.83;;
4555;SDS011;2290;48.674;9.018;2024-02-26T03:25:42;1.57;;;1.10;;
4555;SDS011;2290;48.674;9.018;2024-02-26T03:28:12;0.87;;;0.80;;
4555;SDS011;2290;48.674;9.018;2024-02-26T03:30:37;0.90;;;0.70;;
4555;SDS011;2290;48.674;9.018;2024-02-26T03:33:03;2.10;;;1.60;;
4555;SDS011;2290;48.674;9.018;2024-02-26T03:35:29;5.30;;;3.53;;
4555;SDS011;2290;48.674;9.018;2024-02-26T03:37:54;3.60;;;2.30;;
4555;SDS011;2290;48.674;9.018;2024-02-26T03:40:20;1.47;;;1.30;;
4555;SDS011;2290;48.674;9.018;2024-02-26T03:42:45;1.40;;;1.30;;
4555;SDS011;2290;48.674;9.018;2024-02-26T03:45:11;1.57;;;1.10;;
4555;SDS011;2290;48.674;9.018;2024-02-26T03:47:40;1.10;;;1.00;;
4555;SDS011;2290;48.674;9.018;2024-02-26T03:50:06;1.10;;;1.00;;
4555;SDS011;2290;48.674;9.018;2024-02-26T03:52:32;1.10;;;0.90;;
4555;SDS011;2290;48.674;9.018;2024-02-26T03:54:59;1.20;;;1.10;;
4555;SDS011;2290;48.674;9.018;2024-02-26T03:57:24;1.00;;;0.90;;
4555;SDS011;2290;48.674;9.018;2024-02-26T03:59:50;1.10;;;0.97;;
4555;SDS011;2290;48.674;9.018;2024-02-26T04:02:16;1.03;;;0.87;;
4555;SDS011;2290;48.674;9.018;2024-02-26T04:04:45;2.20;;;1.30;;
4555;SDS011;2290;48.674;9.018;2024-02-26T04:07:11;1.17;;;1.07;;
4555;SDS011;2290;48.674;9.018;2024-02-26T04:09:36;1.10;;;1.00;;
4555;SDS011;2290;48.674;9.018;2024-02-26T04:12:02;4.70;;;1.30;;
4555;SDS011;2290;48.674;9.018;2024-02-26T04:14:28;1.10;;;1.00;;
4555;SDS011;2290;48.674;9.018;2024-02-26T04:16:55;0.93;;;0.80;;
4555;SDS011;2290;48.674;9.018;2024-02-26T04:19:20;1.63;;;0.93;;
4555;SDS011;2290;48.674;9.018;2024-02-26T04:21:47;1.63;;;1.13;;
4555;SDS011;2290;48.674;9.018;2024-02-26T04:24:13;1.00;;;0.90;;
4555;SDS011;2290;48.674;9.018;2024-02-26T04:26:38;1.20;;;1.10;;
4555;SDS011;2290;48.674;9.018;2024-02-26T04:29:04;1.00;;;0.90;;
4555;SDS011;2290;48.674;9.018;2024-02-26T04:31:29;3.40;;;1.23;;
4555;SDS011;2290;48.674;9.018;2024-02-26T04:33:57;1.23;;;0.90;;
4555;SDS011;2290;48.674;9.018;2024-02-26T04:36:23;1.30;;;1.10;;
4555;SDS011;2290;48.674;9.018;2024-02-26T04:38:50;1.20;;;1.10;;
4555;SDS011;2290;48.674;9.018;2024-02-26T04:41:16;10.97;;;1.27;;
4555;SDS011;2290;48.674;9.018;2024-02-26T04:43:42;1.00;;;0.90;;
4555;SDS011;2290;48.674;9.018;2024-02-26T04:46:08;1.17;;;0.97;;
4555;SDS011;2290;48.674;9.018;2024-02-26T04:48:34;1.57;;;1.10;;
4555;SDS011;2290;48.674;9.018;2024-02-26T04:51:00;1.13;;;1.03;;
4555;SDS011;2290;48.674;9.018;2024-02-26T04:53:26;2.00;;;1.10;;
4555;SDS011;2290;48.674;9.018;2024-02-26T04:55:51;1.20;;;1.10;;
4555;SDS011;2290;48.674;9.018;2024-02-26T04:58:17;1.13;;;1.00;;
4555;SDS011;2290;48.674;9.018;2024-02-26T05:00:43;1.50;;;1.30;;
4555;SDS011;2290;48.674;9.018;2024-02-26T05:03:09;1.40;;;1.17;;
4555;SDS011;2290;48.674;9.018;2024-02-26T05:05:43;1.50;;;1.37;;
4555;SDS011;2290;48.674;9.018;2024-02-26T05:08:10;1.57;;;1.27;;
4555;SDS011;2290;48.674;9.018;2024-02-26T05:10:37;1.53;;;1.40;;
4555;SDS011;2290;48.674;9.018;2024-02-26T05:13:06;1.50;;;1.37;;
4555;SDS011;2290;48.674;9.018;2024-02-26T05:15:32;1.30;;;1.20;;
4555;SDS011;2290;48.674;9.018;2024-02-26T05:17:57;1.63;;;1.20;;
4555;SDS011;2290;48.674;9.018;2024-02-26T05:20:23;2.13;;;1.40;;
4555;SDS011;2290;48.674;9.018;2024-02-26T05:22:48;1.30;;;1.20;;
4555;SDS011;2290;48.674;9.018;2024-02-26T05:25:15;6.00;;;1.27;;
4555;SDS011;2290;48.674;9.018;2024-02-26T05:27:45;1.50;;;1.23;;
4555;SDS011;2290;48.674;9.018;2024-02-26T05:30:13;3.00;;;1.37;;
4555;SDS011;2290;48.674;9.018;2024-02-26T05:32:38;1.20;;;1.10;;
4555;SDS011;2290;48.674;9.018;2024-02-26T05:35:06;1.23;;;1.00;;
4555;SDS011;2290;48.674;9.018;2024-02-26T05:37:31;4.40;;;1.33;;
4555;SDS011;2290;48.674;9.018;2024-02-26T05:39:59;1.30;;;1.17;;
4555;SDS011;2290;48.674;9.018;2024-02-26T05:42:24;1.27;;;1.17;;
4555;SDS011;2290;48.674;9.018;2024-02-26T05:44:50;2.20;;;1.30;;
4555;SDS011;2290;48.674;9.018;2024-02-26T05:47:16;1.80;;;1.33;;
4555;SDS011;2290;48.674;9.018;2024-02-26T05:49:42;1.33;;;1.23;;
4555;SDS011;2290;48.674;9.018;2024-02-26T05:52:08;1.50;;;1.40;;
4555;SDS011;2290;48.674;9.018;2024-02-26T05:54:33;1.93;;;1.30;;
4555;SDS011;2290;48.674;9.018;2024-02-26T05:56:59;2.17;;;1.40;;
4555;SDS011;2290;48.674;9.018;2024-02-26T05:59:24;1.53;;;1.03;;
4555;SDS011;2290;48.674;9.018;2024-02-26T06:01:52;2.17;;;1.30;;
4555;SDS011;2290;48.674;9.018;2024-02-26T06:04:17;2.03;;;1.23;;
4555;SDS011;2290;48.674;9.018;2024-02-26T06:06:46;1.33;;;1.23;;
4555;SDS011;2290;48.674;9.018;2024-02-26T06:09:11;1.60;;;1.50;;
4555;SDS011;2290;48.674;9.018;2024-02-26T06:11:38;1.87;;;1.17;;
4555;SDS011;2290;48.674;9.018;2024-02-26T06:14:04;1.30;;;1.20;;
4555;SDS011;2290;48.674;9.018;2024-02-26T06:16:30;1.40;;;1.30;;
4555;SDS011;2290;48.674;9.018;2024-02-26T06:18:56;1.80;;;1.40;;
4555;SDS011;2290;48.674;9.018;2024-02-26T06:21:21;1.70;;;1.23;;
4555;SDS011;2290;48.674;9.018;2024-02-26T06:23:48;1.40;;;1.20;;
4555;SDS011;2290;48.674;9.018;2024-02-26T06:26:15;1.47;;;1.37;;
4555;SDS011;2290;48.674;9.018;2024-02-26T06:28:41;1.30;;;1.20;;
4555;SDS011;2290;48.674;9.018;2024-02-26T06:31:06;1.63;;;1.37;;
4555;SDS011;2290;48.674;9.018;2024-02-26T06:33:32;1.40;;;1.30;;
4555;SDS011;2290;48.674;9.018;2024-02-26T06:35:57;1.90;;;1.50;;
4555;SDS011;2290;48.674;9.018;2024-02-26T06:38:23;4.53;;;1.87;;
4555;SDS011;2290;48.674;9.018;2024-02-26T06:40:49;5.63;;;2.00;;
4555;SDS011;2290;48.674;9.018;2024-02-26T06:43:16;3.00;;;1.80;;
4555;SDS011;2290;48.674;9.018;2024-02-26T06:45:41;3.47;;;1.60;;
4555;SDS011;2290;48.674;9.018;2024-02-26T06:48:07;2.43;;;1.60;;
4555;SDS011;2290;48.674;9.018;2024-02-26T06:50:32;2.37;;;1.57;;
4555;SDS011;2290;48.674;9.018;2024-02-26T06:52:58;1.70;;;1.40;;
4555;SDS011;2290;48.674;9.018;2024-02-26T06:55:24;2.40;;;1.50;;
4555;SDS011;2290;48.674;9.018;2024-02-26T06:57:49;1.50;;;1.30;;
4555;SDS011;2290;48.674;9.018;2024-02-26T07:00:15;1.83;;;1.47;;
4555;SDS011;2290;48.674;9.018;2024-02-26T07:02:43;1.20;;;1.10;;
4555;SDS011;2290;48.674;9.018;2024-02-26T07:05:09;1.10;;;1.00;;
4555;SDS011;2290;48.674;9.018;2024-02-26T07:07:35;2.07;;;1.10;;
4555;SDS011;2290;48.674;9.018;2024-02-26T07:10:02;1.17;;;1.03;;
4555;SDS011;2290;48.674;9.018;2024-02-26T07:12:30;1.10;;;1.00;;
4555;SDS011;2290;48.674;9.018;2024-02-26T07:14:57;1.10;;;1.00;;
4555;SDS011;2290;48.674;9.018;2024-02-26T07:17:24;1.27;;;1.07;;
4555;SDS011;2290;48.674;9.018;2024-02-26T07:19:50;1.50;;;1.10;;
4555;SDS011;2290;48.674;9.018;2024-02-26T07:22:17;1.73;;;1.17;;
4555;SDS011;2290;48.674;9.018;2024-02-26T07:24:43;1.77;;;1.10;;
4555;SDS011;2290;48.674;9.018;2024-02-26T07:27:10;1.37;;;1.10;;
4555;SDS011;2290;48.674;9.018;2024-02-26T07:29:35;2.20;;;1.10;;
4555;SDS011;2290;48.674;9.018;2024-02-26T07:32:01;1.33;;;1.13;;
4555;SDS011;2290;48.674;9.018;2024-02-26T07:34:26;1.07;;;0.97;;
4555;SDS011;2290;48.674;9.018;2024-02-26T07:36:55;1.50;;;1.30;;
4555;SDS011;2290;48.674;9.018;2024-02-26T07:39:21;1.10;;;1.00;;
4555;SDS011;2290;48.674;9.018;2024-02-26T07:41:48;1.20;;;1.10;;
4555;SDS011;2290;48.674;9.018;2024-02-26T07:44:18;1.30;;;1.13;;
4555;SDS011;2290;48.674;9.018;2024-02-26T07:46:44;1.30;;;1.20;;
4555;SDS011;2290;48.674;9.018;2024-02-26T07:49:11;1.67;;;1.03;;
4555;SDS011;2290;48.674;9.018;2024-02-26T07:51:36;1.33;;;1.20;;
4555;SDS011;2290;48.674;9.018;2024-02-26T07:54:02;1.40;;;1.30;;
4555;SDS011;2290;48.674;9.018;2024-02-26T07:56:28;1.63;;;1.43;;
4555;SDS011;2290;48.674;9.018;2024-02-26T07:58:55;1.80;;;1.50;;
4555;SDS011;2290;48.674;9.018;2024-02-26T08:01:20;1.87;;;1.60;;
4555;SDS011;2290;48.674;9.018;2024-02-26T08:03:46;2.00;;;1.60;;
4555;SDS011;2290;48.674;9.018;2024-02-26T08:06:11;2.33;;;1.60;;
4555;SDS011;2290;48.674;9.018;2024-02-26T08:08:37;2.00;;;1.80;;
4555;SDS011;2290;48.674;9.018;2024-02-26T08:11:03;2.03;;;1.70;;
4555;SDS011;2290;48.674;9.018;2024-02-26T08:13:28;2.03;;;1.67;;
4555;SDS011;2290;48.674;9.018;2024-02-26T08:15:54;2.27;;;1.70;;
4555;SDS011;2290;48.674;9.018;2024-02-26T08:18:20;2.47;;;1.73;;
4555;SDS011;2290;48.674;9.018;2024-02-26T08:20:45;2.50;;;1.70;;
4555;SDS011;2290;48.674;9.018;2024-02-26T08:23:13;1.73;;;1.40;;
4555;SDS011;2290;48.674;9.018;2024-02-26T08:25:40;1.40;;;1.30;;
4555;SDS011;2290;48.674;9.018;2024-02-26T08:28:06;3.50;;;1.40;;
4555;SDS011;2290;48.674;9.018;2024-02-26T08:30:31;1.83;;;1.53;;
4555;SDS011;2290;48.674;9.018;2024-02-26T08:32:57;2.47;;;1.50;;
4555;SDS011;2290;48.674;9.018;2024-02-26T08:35:22;1.83;;;1.63;;
4555;SDS011;2290;48.674;9.018;2024-02-26T08:37:48;1.60;;;1.50;;
4555;SDS011;2290;48.674;9.018;2024-02-26T08:40:14;1.80;;;1.43;;
4555;SDS011;2290;48.674;9.018;2024-02-26T08:42:40;1.70;;;1.40;;
4555;SDS011;2290;48.674;9.018;2024-02-26T08:45:05;2.03;;;1.30;;
4555;SDS011;2290;48.674;9.018;2024-02-26T08:47:33;2.20;;;1.77;;
4555;SDS011;2290;48.674;9.018;2024-02-26T08:49:59;1.70;;;1.27;;
4555;SDS011;2290;48.674;9.018;2024-02-26T08:52:25;1.83;;;1.60;;
4555;SDS011;2290;48.674;9.018;2024-02-26T08:54:50;1.87;;;1.30;;
4555;SDS011;2290;48.674;9.018;2024-02-26T08:57:16;1.20;;;1.10;;
4555;SDS011;2290;48.674;9.018;2024-02-26T08:59:41;1.50;;;1.40;;
4555;SDS011;2290;48.674;9.018;2024-02-26T09:02:08;1.37;;;1.20;;
4555;SDS011;2290;48.674;9.018;2024-02-26T09:04:34;8.37;;;3.30;;
4555;SDS011;2290;48.674;9.018;2024-02-26T09:07:04;6.60;;;3.17;;
4555;SDS011;2290;48.674;9.018;2024-02-26T09:09:31;3.77;;;2.23;;
4555;SDS011;2290;48.674;9.018;2024-02-26T09:11:57;3.07;;;2.20;;
4555;SDS011;2290;48.674;9.018;2024-02-26T09:14:23;2.60;;;1.60;;
4555;SDS011;2290;48.674;9.018;2024-02-26T09:16:50;1.60;;;1.33;;
4555;SDS011;2290;48.674;9.018;2024-02-26T09:19:17;1.47;;;1.37;;
4555;SDS011;2290;48.674;9.018;2024-02-26T09:21:43;1.23;;;1.00;;
4555;SDS011;2290;48.674;9.018;2024-02-26T09:24:09;1.50;;;1.37;;
4555;SDS011;2290;48.674;9.018;2024-02-26T09:26:37;1.40;;;1.20;;
4555;SDS011;2290;48.674;9.018;2024-02-26T09:29:03;1.37;;;1.27;;
4555;SDS011;2290;48.674;9.018;2024-02-26T09:31:29;1.73;;;1.40;;
4555;SDS011;2290;48.674;9.018;2024-02-26T09:33:55;1.50;;;1.40;;
4555;SDS011;2290;48.674;9.018;2024-02-26T09:36:20;2.33;;;1.50;;
4555;SDS011;2290;48.674;9.018;2024-02-26T09:38:46;1.80;;;1.47;;
4555;SDS011;2290;48.674;9.018;2024-02-26T09:41:15;1.40;;;1.30;;
4555;SDS011;2290;48.674;9.018;2024-02-26T09:43:42;2.00;;;1.50;;
4555;SDS011;2290;48.674;9.018;2024-02-26T09:46:12;1.60;;;1.33;;
4555;SDS011;2290;48.674;9.018;2024-02-26T09:48:40;2.13;;;1.50;;
4555;SDS011;2290;48.674;9.018;2024-02-26T09:51:08;1.40;;;1.30;;
4555;SDS011;2290;48.674;9.018;2024-02-26T09:53:36;1.60;;;1.40;;
4555;SDS011;2290;48.674;9.018;2024-02-26T09:56:06;2.30;;;1.47;;
4555;SDS011;2290;48.674;9.018;2024-02-26T09:58:32;1.53;;;1.30;;
4555;SDS011;2290;48.674;9.018;2024-02-26T10:01:00;1.50;;;1.40;;
4555;SDS011;2290;48.674;9.018;2024-02-26T10:03:31;1.50;;;1.30;;
4555;SDS011;2290;48.674;9.018;2024-02-26T10:06:02;1.30;;;1.20;;
4555;SDS011;2290;48.674;9.018;2024-02-26T10:08:30;1.83;;;1.10;;
4555;SDS011;2290;48.674;9.018;2024-02-26T10:10:57;1.57;;;1.23;;
4555;SDS011;2290;48.674;9.018;2024-02-26T10:13:22;2.90;;;1.23;;
4555;SDS011;2290;48.674;9.018;2024-02-26T10:15:49;1.20;;;1.10;;
4555;SDS011;2290;48.674;9.018;2024-02-26T10:18:15;1.40;;;1.20;;
4555;SDS011;2290;48.674;9.018;2024-02-26T10:20:40;1.80;;;1.10;;
4555;SDS011;2290;48.674;9.018;2024-02-26T10:23:06;1.40;;;1.10;;
4555;SDS011;2290;48.674;9.018;2024-02-26T10:25:31;1.23;;;1.03;;
4555;SDS011;2290;48.674;9.018;2024-02-26T10:28:01;1.53;;;1.30;;
4555;SDS011;2290;48.674;9.018;2024-02-26T10:30:27;1.70;;;1.30;;
4555;SDS011;2290;48.674;9.018;2024-02-26T10:32:54;1.50;;;1.03;;
4555;SDS011;2290;48.674;9.018;2024-02-26T10:35:20;1.27;;;1.00;;
4555;SDS011;2290;48.674;9.018;2024-02-26T10:37:46;1.77;;;1.50;;
4555;SDS011;2290;48.674;9.018;2024-02-26T10:40:13;1.10;;;1.00;;
4555;SDS011;2290;48.674;9.018;2024-02-26T10:42:40;1.67;;;1.30;;
4555;SDS011;2290;48.674;9.018;2024-02-26T10:45:06;1.20;;;1.10;;
4555;SDS011;2290;48.674;9.018;2024-02-26T10:47:34;1.30;;;1.07;;
4555;SDS011;2290;48.674;9.018;2024-02-26T10:50:04;1.10;;;1.00;;
4555;SDS011;2290;48.674;9.018;2024-02-26T10:52:31;1.20;;;1.10;;
4555;SDS011;2290;48.674;9.018;2024-02-26T10:55:02;1.37;;;1.10;;
4555;SDS011;2290;48.674;9.018;2024-02-26T10:57:40;1.43;;;1.27;;
4555;SDS011;2290;48.674;9.018;2024-02-26T11:00:08;1.93;;;1.40;;
4555;SDS011;2290;48.674;9.018;2024-02-26T11:02:38;1.30;;;1.20;;
4555;SDS011;2290;48.674;9.018;2024-02-26T11:05:06;2.10;;;1.40;;
4555;SDS011;2290;48.674;9.018;2024-02-26T11:07:34;1.60;;;1.20;;
4555;SDS011;2290;48.674;9.018;2024-02-26T11:10:02;3.07;;;1.60;;
4555;SDS011;2290;48.674;9.018;2024-02-26T11:12:32;2.50;;;1.80;;
4555;SDS011;2290;48.674;9.018;2024-02-26T11:15:00;2.27;;;1.80;;
4555;SDS011;2290;48.674;9.018;2024-02-26T11:17:28;2.53;;;1.50;;
4555;SDS011;2290;48.674;9.018;2024-02-26T11:19:56;1.50;;;1.33;;
4555;SDS011;2290;48.674;9.018;2024-02-26T11:22:27;1.73;;;1.37;;
4555;SDS011;2290;48.674;9.018;2024-02-26T11:24:55;1.77;;;1.40;;
4555;SDS011;2290;48.674;9.018;2024-02-26T11:27:27;1.93;;;1.40;;
4555;SDS011;2290;48.674;9.018;2024-02-26T11:29:57;1.60;;;1.47;;
4555;SDS011;2290;48.674;9.018;2024-02-26T11:32:27;1.33;;;1.23;;
4555;SDS011;2290;48.674;9.018;2024-02-26T11:34:55;1.70;;;1.40;;
4555;SDS011;2290;48.674;9.018;2024-02-26T11:37:22;1.47;;;1.20;;
4555;SDS011;2290;48.674;9.018;2024-02-26T11:39:49;1.77;;;1.37;;
4555;SDS011;2290;48.674;9.018;2024-02-26T11:42:24;1.47;;;1.10;;
4555;SDS011;2290;48.674;9.018;2024-02-26T11:44:50;2.07;;;1.30;;
4555;SDS011;2290;48.674;9.018;2024-02-26T11:47:21;2.23;;;1.53;;
4555;SDS011;2290;48.674;9.018;2024-02-26T11:49:48;7.63;;;1.90;;
4555;SDS011;2290;48.674;9.018;2024-02-26T11:52:15;1.70;;;1.47;;
4555;SDS011;2290;48.674;9.018;2024-02-26T11:54:45;1.40;;;1.30;;
4555;SDS011;2290;48.674;9.018;2024-02-26T11:57:22;2.40;;;1.73;;
4555;SDS011;2290;48.674;9.018;2024-02-26T11:59:53;2.80;;;1.23;;
4555;SDS011;2290;48.674;9.018;2024-02-26T12:05:08;1.60;;;1.17;;
4555;SDS011;2290;48.674;9.018;2024-02-26T12:07:48;1.93;;;1.30;;
4555;SDS011;2290;48.674;9.018;2024-02-26T12:13:00;2.33;;;1.23;;
4555;SDS011;2290;48.674;9.018;2024-02-26T12:15:37;1.70;;;1.20;;
4555;SDS011;2290;48.674;9.018;2024-02-26T12:18:05;1.30;;;1.20;;
4555;SDS011;2290;48.674;9.018;2024-02-26T12:21:04;1.97;;;1.33;;
4555;SDS011;2290;48.674;9.018;2024-02-26T12:23:30;1.37;;;1.27;;
4555;SDS011;2290;48.674;9.018;2024-02-26T12:25:59;1.33;;;1.23;;
4555;SDS011;2290;48.674;9.018;2024-02-26T12:28:32;1.63;;;1.20;;
4555;SDS011;2290;48.674;9.018;2024-02-26T12:30:58;1.93;;;1.23;;
4555;SDS011;2290;48.674;9.018;2024-02-26T12:33:25;2.10;;;1.30;;
4555;SDS011;2290;48.674;9.018;2024-02-26T12:35:53;1.60;;;1.30;;
4555;SDS011;2290;48.674;9.018;2024-02-26T12:38:20;1.50;;;1.20;;
4555;SDS011;2290;48.674;9.018;2024-02-26T12:40:45;2.37;;;1.53;;
4555;SDS011;2290;48.674;9.018;2024-02-26T12:43:14;2.00;;;1.30;;
4555;SDS011;2290;48.674;9.018;2024-02-26T12:45:40;3.10;;;0.97;;
4555;SDS011;2290;48.674;9.018;2024-02-26T12:48:06;1.27;;;1.10;;
4555;SDS011;2290;48.674;9.018;2024-02-26T12:50:33;1.10;;;0.97;;
4555;SDS011;2290;48.674;9.018;2024-02-26T12:52:59;1.17;;;0.97;;
4555;SDS011;2290;48.674;9.018;2024-02-26T12:55:25;0.90;;;0.80;;
4555;SDS011;2290;48.674;9.018;2024-02-26T12:57:51;1.80;;;0.80;;
4555;SDS011;2290;48.674;9.018;2024-02-26T13:00:24;1.70;;;1.20;;
4555;SDS011;2290;48.674;9.018;2024-02-26T13:02:53;1.07;;;0.97;;
4555;SDS011;2290;48.674;9.018;2024-02-26T13:05:20;1.70;;;1.20;;
4555;SDS011;2290;48.674;9.018;2024-02-26T13:07:47;1.00;;;0.80;;
4555;SDS011;2290;48.674;9.018;2024-02-26T13:10:13;1.00;;;0.90;;
4555;SDS011;2290;48.674;9.018;2024-02-26T13:12:43;1.17;;;0.80;;
4555;SDS011;2290;48.674;9.018;2024-02-26T13:15:17;3.10;;;1.03;;
4555;SDS011;2290;48.674;9.018;2024-02-26T13:17:45;1.50;;;1.17;;
4555;SDS011;2290;48.674;9.018;2024-02-26T13:20:11;1.20;;;1.00;;
4555;SDS011;2290;48.674;9.018;2024-02-26T13:22:38;2.20;;;0.90;;
4555;SDS011;2290;48.674;9.018;2024-02-26T13:25:04;1.00;;;0.90;;
4555;SDS011;2290;48.674;9.018;2024-02-26T13:27:32;1.30;;;0.90;;
4555;SDS011;2290;48.674;9.018;2024-02-26T13:30:02;1.17;;;1.03;;
4555;SDS011;2290;48.674;9.018;2024-02-26T13:32:27;1.93;;;0.90;;
4555;SDS011;2290;48.674;9.018;2024-02-26T13:35:03;1.20;;;1.10;;
4555;SDS011;2290;48.674;9.018;2024-02-26T13:37:31;1.50;;;1.00;;
4555;SDS011;2290;48.674;9.018;2024-02-26T13:39:56;2.07;;;1.03;;
4555;SDS011;2290;48.674;9.018;2024-02-26T13:42:22;1.90;;;0.90;;
4555;SDS011;2290;48.674;9.018;2024-02-26T13:44:47;1.20;;;1.10;;
4555;SDS011;2290;48.674;9.018;2024-02-26T13:47:13;1.37;;;1.27;;
4555;SDS011;2290;48.674;9.018;2024-02-26T13:49:39;1.37;;;1.00;;
4555;SDS011;2290;48.674;9.018;2024-02-26T13:52:05;1.20;;;0.90;;
4555;SDS011;2290;48.674;9.018;2024-02-26T13:54:31;1.33;;;1.00;;
4555;SDS011;2290;48.674;9.018;2024-02-26T13:56:56;1.00;;;0.90;;
4555;SDS011;2290;48.674;9.018;2024-02-26T13:59:22;1.00;;;0.90;;
4555;SDS011;2290;48.674;9.018;2024-02-26T14:01:47;1.17;;;1.07;;
4555;SDS011;2290;48.674;9.018;2024-02-26T14:04:13;1.00;;;0.80;;
4555;SDS011;2290;48.674;9.018;2024-02-26T14:06:39;0.90;;;0.80;;
4555;SDS011;2290;48.674;9.018;2024-02-26T14:09:04;1.00;;;0.83;;
4555;SDS011;2290;48.674;9.018;2024-02-26T14:11:30;1.10;;;1.00;;
4555;SDS011;2290;48.674;9.018;2024-02-26T14:13:58;0.97;;;0.87;;
4555;SDS011;2290;48.674;9.018;2024-02-26T14:16:25;1.20;;;1.00;;
4555;SDS011;2290;48.674;9.018;2024-02-26T14:18:51;1.77;;;0.90;;
4555;SDS011;2290;48.674;9.018;2024-02-26T14:21:16;1.03;;;0.80;;
4555;SDS011;2290;48.674;9.018;2024-02-26T14:23:42;1.10;;;0.90;;
4555;SDS011;2290;48.674;9.018;2024-02-26T14:26:09;1.40;;;0.90;;
4555;SDS011;2290;48.674;9.018;2024-02-26T14:28:35;0.90;;;0.80;;
4555;SDS011;2290;48.674;9.018;2024-02-26T14:31:00;1.00;;;0.90;;
4555;SDS011;2290;48.674;9.018;2024-02-26T14:33:26;1.20;;;1.00;;
4555;SDS011;2290;48.674;9.018;2024-02-26T14:35:53;0.90;;;0.80;;
4555;SDS011;2290;48.674;9.018;2024-02-26T14:38:18;1.07;;;0.97;;
4555;SDS011;2290;48.674;9.018;2024-02-26T14:40:44;3.20;;;1.10;;
4555;SDS011;2290;48.674;9.018;2024-02-26T14:43:10;0.93;;;0.80;;
4555;SDS011;2290;48.674;9.018;2024-02-26T14:45:36;1.73;;;0.90;;
4555;SDS011;2290;48.674;9.018;2024-02-26T14:48:04;1.20;;;0.90;;
4555;SDS011;2290;48.674;9.018;2024-02-26T14:50:31;1.17;;;1.00;;
4555;SDS011;2290;48.674;9.018;2024-02-26T14:52:56;1.10;;;0.90;;
4555;SDS011;2290;48.674;9.018;2024-02-26T14:55:23;1.53;;;1.00;;
4555;SDS011;2290;48.674;9.018;2024-02-26T14:57:48;1.30;;;1.00;;
4555;SDS011;2290;48.674;9.018;2024-02-26T15:00:14;1.40;;;0.90;;
4555;SDS011;2290;48.674;9.018;2024-02-26T15:02:41;1.00;;;0.90;;
4555;SDS011;2290;48.674;9.018;2024-02-26T15:05:07;1.57;;;0.83;;
4555;SDS011;2290;48.674;9.018;2024-02-26T15:07:35;1.20;;;1.10;;
4555;SDS011;2290;48.674;9.018;2024-02-26T15:10:01;1.60;;;0.97;;
4555;SDS011;2290;48.674;9.018;2024-02-26T15:12:27;1.13;;;0.97;;
4555;SDS011;2290;48.674;9.018;2024-02-26T15:14:52;1.10;;;1.00;;
4555;SDS011;2290;48.674;9.018;2024-02-26T15:17:18;1.30;;;1.20;;